Detall de PIREP

Printer-friendly versionPDF version

[2015/01/31 09:13:00]
Flight IATA:CT2111
Pilot Number:041
Company ICAO:CAT
Aircraft Type:C172/A
PAX:2
Departing Airport: LEST
Destination Airport: LEVC
Alternate Airport:LEBL
Online: VATSIM
Route:FORNO A33 ZMR A33 DISKO A33 INDEG A33 MAGIN A33 HORTA A33 CJN A33 PRADO A33 CENTA
Flight Level:FL100
No Slew and time accel
No pause
Crash detect
Detect pilot in Cockpit between each 30 and 45 minutes
09:13 Zero fuel Weight: 2010 Lbs, Fuel Weight: 335 Lbs
09:13 VATSIM:LEST 310830Z 32004KT 260V030 9999 FEW012 SCT025 FEW048CB 04/03 Q1005 TEMPO 2500 SHRA BKN008 SCT025TCU
09:13 VATSIM:LEVC 310830Z 25009KT 9999 FEW040 11/08 Q0991 NOSIG
09:13 VOICE CATALONIAN
09:17 Parking Brakes off
09:22 Take-off
09:22 Take off Weight: 2344 Lbs
09:22 Wind: 329º @ 003 Knots Heading: 345º
09:22 POS N42º 53´ 23´´ W008º 24´ 46´´
09:22 Flaps:1 at 74 Knots
09:22 Flaps:0 at 60 Knots
09:37 Wind:247º@023 Knots Heading: 137º Ground Speed: 078 Knots Altitude 7693 ft
09:44 TOC
09:44 Fuel Weight: 313 Lb
09:52 Wind:247º@023 Knots Heading: 133º Ground Speed: 106 Knots Altitude 9606 ft
10:07 Wind:262º@018 Knots Heading: 126º Ground Speed: 126 Knots Altitude 9543 ft
10:22 Wind:262º@018 Knots Heading: 131º Ground Speed: 115 Knots Altitude 9511 ft
10:37 Wind:265º@014 Knots Heading: 128º Ground Speed: 126 Knots Altitude 9563 ft
10:52 Wind:268º@013 Knots Heading: 118º Ground Speed: 122 Knots Altitude 9573 ft
11:07 Wind:268º@013 Knots Heading: 119º Ground Speed: 105 Knots Altitude 9639 ft
11:20 TOD
11:20 Fuel Weight: 238 Lb
11:21 TOC
11:21 Fuel Weight: 238 Lb
11:21 TOD
11:21 Fuel Weight: 238 Lb
11:21 TOC
11:21 Fuel Weight: 238 Lb
11:21 TOD
11:21 Fuel Weight: 237 Lb
11:22 Wind:260º@016 Knots Heading: 236º Ground Speed: 158 Knots Altitude 7473 ft
11:37 Wind:260º@016Knots Heading: 121º Ground Speed: 107 Knots Altitude 8904 ft
11:41 TOC
11:41 Fuel Weight: 220 Lb
11:45 TOD
11:45 Fuel Weight: 217 Lb
11:52 Wind:261º@014 Knots Heading: 117º Ground Speed: 125 Knots Altitude 7545 ft
12:07 Wind:261º@014 Knots Heading: 121º Ground Speed: 124 Knots Altitude 7559 ft
12:22 Wind:261º@013 Knots Heading: 161º Ground Speed: 117 Knots Altitude 7516 ft
12:37 Wind:267º@008 Knots Heading: 116º Ground Speed: 124 Knots Altitude 7434 ft
12:52 Wind:275º@013 Knots Heading: 097º Ground Speed: 134 Knots Altitude 5987 ft
13:07 Wind:275º@013 Knots Heading: 109º Ground Speed: 131 Knots Altitude 5006 ft
13:22 Wind:307º@003 Knots Heading: 266º Ground Speed: 116 Knots Altitude 3500 ft
13:26 Flaps:1 at 81 Knots
13:27 Flaps:2 at 78 Knots
13:37 Wind:290º@019 Knots Heading: 292º Ground Speed: 048 Knots Altitude 328 ft
13:38 TouchDown:Rate -29 ft/min Speed: 61Knots
13:38 Flaps:0 at 53 Knots
13:38 VATSIM:LEVC 311300Z 32024G34KT 9999 FEW030 15/M01 Q0995 NOSIG
13:38 Land
13:38 Wind:290º@019 Knots
13:38 Heading: 296º
13:38 Flight Duration: 04:16
13:38 Landing Weight: 2136 Lbs
13:38 POS N39º 29´ 18´´ W000º 28´ 46´´
13:41 Parking brakes on
13:41 Block to Block Duration: 04:24
13:41 Final Fuel: 125 Lbls
13:41 Spent Fuel: 209 Lbls
13:41 Flight Length: 487 NM
13:41 TOD Land Length: 217 NM

Exportar CSV

Powered by Drupal - Modified by Danger4k